createdAt,value
2022-12-26T00:00:08.065Z,7.00
2022-12-26T00:01:11.995Z,8.00
2022-12-26T00:02:14.755Z,7.40
2022-12-26T00:03:17.316Z,7.18
2022-12-26T00:04:49.788Z,5.90
2022-12-26T00:05:23.986Z,8.10
2022-12-26T00:06:28.037Z,6.10
2022-12-26T00:07:30.290Z,7.40
2022-12-26T00:08:32.585Z,6.30
2022-12-26T00:09:34.883Z,7.20
2022-12-26T00:10:37.285Z,6.10
2022-12-26T00:11:42.236Z,7.60
2022-12-26T00:12:48.012Z,4.70
2022-12-26T00:13:57.899Z,4.40
2022-12-26T00:15:00.351Z,5.90
2022-12-26T00:17:20.434Z,2.40
2022-12-26T00:18:23.252Z,4.30
2022-12-26T00:19:26.510Z,5.90
2022-12-26T00:20:29.479Z,6.30
2022-12-26T00:21:31.855Z,5.73
2022-12-26T00:22:35.059Z,5.70
2022-12-26T00:23:38.696Z,6.30
2022-12-26T00:24:42.973Z,6.70
2022-12-26T00:25:45.823Z,4.80
2022-12-26T00:26:48.403Z,5.20
2022-12-26T00:27:50.972Z,6.90
2022-12-26T00:28:55.060Z,6.55
2022-12-26T00:29:57.525Z,6.90
2022-12-26T00:32:40.981Z,5.20
2022-12-26T00:33:44.700Z,5.80
2022-12-26T00:34:47.616Z,6.91
2022-12-26T00:35:50.063Z,5.80
2022-12-26T00:36:52.464Z,5.10
2022-12-26T00:37:55.284Z,6.80
2022-12-26T00:38:59.277Z,5.18
2022-12-26T00:40:01.872Z,4.30
2022-12-26T00:41:05.928Z,4.55
2022-12-26T00:42:08.493Z,5.40
2022-12-26T00:43:11.537Z,5.90
2022-12-26T00:44:14.165Z,6.90
2022-12-26T00:45:16.507Z,5.00
2022-12-26T00:46:20.269Z,5.90
2022-12-26T00:47:22.750Z,6.00
2022-12-26T00:48:26.496Z,5.00
2022-12-26T00:49:29.717Z,5.10
2022-12-26T00:50:35.249Z,4.30
2022-12-26T00:51:37.911Z,5.70
2022-12-26T00:52:40.752Z,6.10
2022-12-26T00:53:43.769Z,6.20
2022-12-26T00:54:46.530Z,6.40
2022-12-26T00:55:48.915Z,4.30
2022-12-26T00:56:52.421Z,6.70
2022-12-26T00:57:54.880Z,5.60
2022-12-26T00:58:58.036Z,4.60
2022-12-26T01:00:00.487Z,4.10
2022-12-26T01:02:41.117Z,4.60
2022-12-26T01:03:44.629Z,5.00
2022-12-26T01:04:48.455Z,5.20
2022-12-26T01:05:51.153Z,6.10
2022-12-26T01:06:53.800Z,7.50
2022-12-26T01:08:22.056Z,5.90
2022-12-26T01:09:01.968Z,5.50
2022-12-26T01:10:05.410Z,6.30
2022-12-26T01:11:10.704Z,6.50
2022-12-26T01:12:13.029Z,2.50
2022-12-26T01:13:16.685Z,5.90
2022-12-26T01:14:19.791Z,4.50
2022-12-26T01:15:22.571Z,6.20
2022-12-26T01:16:25.425Z,5.10
2022-12-26T01:17:29.857Z,6.50
2022-12-26T01:18:32.709Z,4.50
2022-12-26T01:19:35.635Z,2.70
2022-12-26T01:20:38.362Z,5.70
2022-12-26T01:21:43.749Z,6.40
2022-12-26T01:22:48.449Z,4.70
2022-12-26T01:23:50.908Z,4.40
2022-12-26T01:24:54.988Z,4.00
2022-12-26T01:26:16.617Z,4.90
2022-12-26T01:27:01.927Z,5.20
2022-12-26T01:28:04.790Z,4.40
2022-12-26T01:29:08.243Z,5.00
2022-12-26T01:30:11.958Z,5.60
2022-12-26T01:31:17.354Z,2.50
2022-12-26T01:32:19.829Z,5.40
2022-12-26T01:33:22.095Z,5.20
2022-12-26T01:34:24.483Z,3.70
2022-12-26T01:35:27.127Z,3.30
2022-12-26T01:36:30.146Z,4.30
2022-12-26T01:37:33.098Z,5.10
2022-12-26T01:38:35.453Z,3.20
2022-12-26T01:39:38.041Z,0.60
2022-12-26T01:40:44.120Z,5.50
2022-12-26T01:41:47.384Z,5.90
2022-12-26T01:42:49.933Z,4.90
2022-12-26T01:44:02.422Z,3.20
2022-12-26T01:46:29.118Z,4.20
2022-12-26T01:47:40.767Z,4.50
2022-12-26T01:48:44.206Z,3.70
2022-12-26T01:49:49.244Z,3.64
2022-12-26T01:50:55.457Z,3.40
2022-12-26T01:52:02.213Z,3.40
2022-12-26T01:54:40.606Z,4.80
2022-12-26T01:55:29.819Z,3.70
2022-12-26T01:56:36.230Z,3.60
2022-12-26T01:57:41.300Z,2.50
2022-12-26T02:00:00.106Z,4.20
2022-12-26T02:01:03.583Z,2.20
2022-12-26T02:02:07.669Z,4.40
2022-12-26T02:03:30.007Z,3.80
2022-12-26T02:04:54.956Z,3.20
2022-12-26T02:05:58.285Z,4.20
2022-12-26T02:07:02.990Z,4.10
2022-12-26T02:09:23.583Z,4.00
2022-12-26T02:10:27.697Z,3.60
2022-12-26T02:11:38.492Z,2.70
2022-12-26T02:12:42.466Z,5.40
2022-12-26T02:13:45.725Z,3.30
2022-12-26T02:14:48.302Z,3.10
2022-12-26T02:15:52.318Z,3.80
2022-12-26T02:16:54.814Z,4.20
2022-12-26T02:17:57.279Z,3.60
2022-12-26T02:18:59.662Z,4.30
2022-12-26T02:20:15.059Z,3.40
2022-12-26T02:23:04.616Z,3.70
2022-12-26T02:24:37.145Z,3.50
2022-12-26T02:25:59.937Z,3.80
2022-12-26T02:28:39.078Z,2.50
2022-12-26T02:30:07.731Z,3.60
2022-12-26T02:31:37.676Z,2.70
2022-12-26T02:32:55.958Z,3.30
2022-12-26T02:34:26.612Z,4.20
2022-12-26T02:35:44.894Z,3.40
2022-12-26T02:37:08.559Z,3.30
2022-12-26T02:38:35.454Z,2.60
2022-12-26T02:39:58.612Z,2.70
2022-12-26T02:42:25.536Z,2.60
2022-12-26T02:43:58.980Z,3.10
2022-12-26T02:45:32.635Z,2.70
2022-12-26T02:47:00.537Z,4.40
2022-12-26T02:48:21.748Z,3.80
2022-12-26T02:50:05.691Z,2.90
2022-12-26T02:51:40.769Z,2.60
2022-12-26T02:53:08.963Z,2.90
2022-12-26T02:54:48.734Z,3.00
2022-12-26T02:56:11.761Z,3.00
2022-12-26T02:57:35.566Z,3.40
2022-12-26T02:59:15.825Z,3.70
2022-12-26T03:00:37.802Z,3.30
2022-12-26T03:02:01.780Z,2.20
2022-12-26T03:03:29.572Z,4.10
2022-12-26T03:04:50.694Z,3.90
2022-12-26T03:06:15.538Z,4.40
2022-12-26T03:07:38.801Z,4.60
2022-12-26T03:09:03.798Z,3.40
2022-12-26T03:10:34.736Z,3.30
2022-12-26T03:12:01.259Z,3.20
2022-12-26T03:13:13.149Z,3.80
2022-12-26T03:14:25.369Z,3.00
2022-12-26T03:15:31.109Z,3.00
2022-12-26T03:16:53.037Z,3.80
2022-12-26T03:17:59.702Z,3.30
2022-12-26T03:19:06.342Z,3.50
2022-12-26T03:20:16.808Z,3.00
2022-12-26T03:21:22.218Z,3.60
2022-12-26T03:22:48.241Z,2.40
2022-12-26T03:23:51.674Z,3.50
2022-12-26T03:25:12.530Z,3.10
2022-12-26T03:26:37.274Z,3.70
2022-12-26T03:27:40.409Z,3.50
2022-12-26T03:28:43.362Z,0.20
2022-12-26T03:30:04.060Z,2.36
2022-12-26T03:31:11.142Z,4.00
2022-12-26T03:32:14.008Z,2.20
2022-12-26T03:33:43.190Z,2.91
2022-12-26T03:34:46.133Z,4.00
2022-12-26T03:35:49.710Z,3.30
2022-12-26T03:38:39.332Z,3.00
2022-12-26T03:40:16.440Z,2.00
2022-12-26T03:43:25.858Z,2.70
2022-12-26T03:44:54.049Z,2.40
2022-12-26T03:46:37.165Z,3.00
2022-12-26T03:48:03.362Z,2.20
2022-12-26T03:49:31.462Z,2.40
2022-12-26T03:50:55.865Z,2.30
2022-12-26T03:52:26.750Z,2.80
2022-12-26T03:53:52.171Z,2.90
2022-12-26T03:55:20.050Z,1.90
2022-12-26T03:56:44.113Z,2.20
2022-12-26T03:58:14.698Z,2.40
2022-12-26T03:59:48.917Z,3.00
2022-12-26T04:01:10.181Z,2.40
2022-12-26T04:02:31.338Z,2.80
2022-12-26T04:03:53.562Z,3.00
2022-12-26T04:05:14.723Z,3.10
2022-12-26T04:06:38.513Z,2.00
2022-12-26T04:08:03.198Z,3.40
2022-12-26T04:09:28.244Z,2.90
2022-12-26T04:11:01.189Z,3.00
2022-12-26T04:12:22.332Z,3.00
2022-12-26T04:15:24.912Z,2.40
2022-12-26T04:16:53.338Z,2.50
2022-12-26T04:18:34.044Z,2.00
2022-12-26T04:19:57.733Z,2.20
2022-12-26T04:21:11.884Z,3.20
2022-12-26T04:22:41.846Z,3.10
2022-12-26T04:24:03.026Z,2.40
2022-12-26T04:25:50.563Z,3.30
2022-12-26T04:26:58.227Z,2.40
2022-12-26T04:28:18.948Z,2.20
2022-12-26T04:29:39.733Z,2.80
2022-12-26T04:31:02.099Z,2.70
2022-12-26T04:32:27.321Z,3.80
2022-12-26T04:33:56.356Z,2.30
2022-12-26T04:35:30.628Z,1.80
2022-12-26T04:36:54.086Z,2.80
2022-12-26T04:38:16.132Z,2.60
2022-12-26T04:39:39.403Z,2.10
2022-12-26T04:41:03.701Z,3.80
2022-12-26T04:42:24.352Z,2.60
2022-12-26T04:43:48.432Z,2.60
2022-12-26T04:44:50.155Z,2.80
2022-12-26T04:45:54.008Z,3.40
2022-12-26T04:46:57.378Z,2.90
2022-12-26T04:48:18.416Z,2.00
2022-12-26T04:49:39.223Z,2.50
2022-12-26T04:50:51.182Z,2.50
2022-12-26T04:51:57.586Z,3.40
2022-12-26T04:53:01.246Z,3.60
2022-12-26T04:54:04.533Z,2.70
2022-12-26T04:55:08.155Z,2.90
2022-12-26T04:56:11.311Z,2.40
2022-12-26T04:57:14.251Z,3.10
2022-12-26T04:58:18.310Z,1.80
2022-12-26T04:59:20.691Z,3.10
2022-12-26T05:00:24.539Z,4.27
2022-12-26T05:01:46.691Z,8.40
2022-12-26T05:03:10.207Z,12.40
2022-12-26T05:04:34.837Z,20.90
2022-12-26T05:06:01.150Z,38.10
2022-12-26T05:07:23.432Z,60.40
2022-12-26T05:09:01.169Z,74.90
2022-12-26T05:10:04.853Z,88.30
2022-12-26T05:11:08.375Z,94.00
2022-12-26T05:12:10.916Z,92.00
2022-12-26T05:13:13.925Z,92.50
2022-12-26T05:14:18.303Z,96.90
2022-12-26T05:15:22.417Z,90.20
2022-12-26T05:16:45.218Z,88.40
2022-12-26T05:18:05.888Z,82.50
2022-12-26T05:19:36.082Z,82.10
2022-12-26T05:20:45.692Z,77.60
2022-12-26T05:22:07.692Z,77.10
2022-12-26T05:23:37.229Z,78.70
2022-12-26T05:24:59.295Z,76.10
2022-12-26T05:26:20.843Z,76.30
2022-12-26T05:27:41.924Z,74.30
2022-12-26T05:28:45.298Z,72.20
2022-12-26T05:29:47.843Z,73.00
2022-12-26T05:30:50.453Z,74.60
2022-12-26T05:31:54.419Z,73.20
2022-12-26T05:33:16.320Z,72.50
2022-12-26T05:34:20.756Z,73.30
2022-12-26T05:35:23.430Z,75.30
2022-12-26T05:37:40.991Z,71.70
2022-12-26T05:38:43.217Z,76.00
2022-12-26T05:39:46.503Z,71.10
2022-12-26T05:40:48.965Z,74.40
2022-12-26T05:41:52.104Z,70.20
2022-12-26T05:42:54.465Z,77.30
2022-12-26T05:43:56.886Z,72.10
2022-12-26T05:44:59.871Z,71.73
2022-12-26T05:46:02.760Z,70.80
2022-12-26T05:47:05.284Z,74.40
2022-12-26T05:48:08.167Z,70.20
2022-12-26T05:49:12.993Z,71.00
2022-12-26T05:50:15.802Z,58.70
2022-12-26T05:51:18.151Z,68.70
2022-12-26T05:52:20.988Z,69.10
2022-12-26T05:53:23.298Z,67.00
2022-12-26T05:54:26.236Z,63.10
2022-12-26T05:55:28.596Z,67.30
2022-12-26T05:56:31.685Z,67.40
2022-12-26T05:57:36.594Z,67.30
2022-12-26T05:58:39.495Z,67.50
2022-12-26T05:59:42.752Z,70.20
2022-12-26T06:00:45.230Z,72.36
2022-12-26T06:01:48.668Z,70.50
2022-12-26T06:02:51.604Z,70.40
2022-12-26T06:03:56.319Z,73.20
2022-12-26T06:04:58.836Z,68.50
2022-12-26T06:06:02.119Z,73.20
2022-12-26T06:07:04.490Z,71.10
2022-12-26T06:08:06.919Z,69.60
2022-12-26T06:09:09.951Z,69.40
2022-12-26T06:10:14.443Z,68.90
2022-12-26T06:11:17.844Z,71.50
2022-12-26T06:12:20.209Z,66.90
2022-12-26T06:13:23.360Z,67.64
2022-12-26T06:14:25.671Z,67.00
2022-12-26T06:15:28.097Z,62.70
2022-12-26T06:16:31.201Z,61.80
2022-12-26T06:17:33.632Z,64.70
2022-12-26T06:18:36.694Z,64.80
2022-12-26T06:19:46.301Z,67.60
2022-12-26T06:20:43.578Z,65.40
2022-12-26T06:21:46.326Z,60.10
2022-12-26T06:22:48.675Z,56.80
2022-12-26T06:23:51.211Z,62.50
2022-12-26T06:24:54.142Z,62.20
2022-12-26T06:25:58.445Z,57.90
2022-12-26T06:27:01.051Z,63.30
2022-12-26T06:28:04.132Z,64.80
2022-12-26T06:29:07.992Z,59.00
2022-12-26T06:30:11.606Z,62.40
2022-12-26T06:31:20.887Z,58.80
2022-12-26T06:32:23.471Z,61.70
2022-12-26T06:33:26.782Z,58.20
2022-12-26T06:34:29.392Z,59.10
2022-12-26T06:35:33.622Z,59.10
2022-12-26T06:36:36.309Z,53.10
2022-12-26T06:37:42.100Z,56.80
2022-12-26T06:38:45.237Z,53.40
2022-12-26T06:39:47.907Z,59.80
2022-12-26T06:40:51.585Z,56.91
2022-12-26T06:41:56.764Z,51.80
2022-12-26T06:43:00.305Z,57.70
2022-12-26T06:44:03.466Z,54.40
2022-12-26T06:45:07.672Z,54.60
2022-12-26T06:46:16.122Z,52.50
2022-12-26T06:47:18.623Z,58.60
2022-12-26T06:48:20.961Z,52.40
2022-12-26T06:49:32.197Z,48.30
2022-12-26T06:50:30.147Z,51.90
2022-12-26T06:51:35.025Z,51.20
2022-12-26T06:52:38.009Z,56.10
2022-12-26T06:53:41.845Z,50.90
2022-12-26T06:54:45.192Z,53.10
2022-12-26T06:55:48.503Z,54.80
2022-12-26T06:56:52.205Z,53.00
2022-12-26T06:57:55.068Z,52.20
2022-12-26T07:00:12.989Z,48.80
2022-12-26T07:01:17.638Z,50.00
2022-12-26T07:02:20.405Z,35.80
2022-12-26T07:03:27.152Z,51.90
2022-12-26T07:04:29.710Z,48.90
2022-12-26T07:05:35.540Z,51.00
2022-12-26T07:06:39.042Z,42.10
2022-12-26T07:07:42.500Z,49.30
2022-12-26T07:08:45.505Z,50.00
2022-12-26T07:09:48.912Z,48.00
2022-12-26T07:10:52.485Z,39.20
2022-12-26T07:11:55.845Z,49.70
2022-12-26T07:12:58.087Z,47.90
2022-12-26T07:14:02.056Z,50.90
2022-12-26T07:15:05.321Z,45.10
2022-12-26T07:16:10.210Z,47.10
2022-12-26T07:17:12.792Z,47.50
2022-12-26T07:18:16.404Z,48.27
2022-12-26T07:19:19.045Z,51.30
2022-12-26T07:20:22.648Z,48.70
2022-12-26T07:21:25.315Z,46.80
2022-12-26T07:22:29.068Z,47.50
2022-12-26T07:23:31.992Z,47.40
2022-12-26T07:24:34.724Z,45.20
2022-12-26T07:25:37.566Z,41.60
2022-12-26T07:26:40.128Z,44.73
2022-12-26T07:27:42.729Z,41.00
2022-12-26T07:28:45.139Z,41.20
2022-12-26T07:29:48.511Z,45.90
2022-12-26T07:30:51.982Z,42.70
2022-12-26T07:31:55.629Z,42.40
2022-12-26T07:32:58.819Z,45.60
2022-12-26T07:34:03.188Z,43.90
2022-12-26T10:12:25.576Z,22.10
2022-12-26T10:13:37.879Z,24.90
2022-12-26T10:14:43.592Z,20.70
2022-12-26T10:16:01.852Z,24.30
2022-12-26T10:17:15.348Z,22.70
2022-12-26T10:18:30.572Z,19.20
2022-12-26T10:19:42.924Z,19.80
2022-12-26T10:20:56.530Z,20.00
2022-12-26T10:22:08.735Z,21.00
2022-12-26T10:24:33.105Z,21.10
2022-12-26T10:26:58.741Z,19.00
2022-12-26T10:28:01.065Z,18.40
2022-12-26T10:29:13.102Z,20.30
2022-12-26T10:30:26.109Z,18.70
2022-12-26T10:31:44.174Z,15.60
2022-12-26T10:32:50.171Z,20.10
2022-12-26T10:35:14.717Z,17.40
2022-12-26T10:36:38.797Z,16.80
2022-12-26T10:37:41.490Z,17.70
2022-12-26T10:38:46.760Z,18.80
2022-12-26T10:41:43.295Z,19.70
2022-12-26T10:44:04.289Z,21.60
2022-12-26T10:45:26.191Z,21.70
2022-12-26T10:48:12.888Z,21.30
2022-12-26T10:49:18.348Z,19.80
2022-12-26T10:51:40.554Z,18.40
2022-12-26T10:52:43.768Z,14.40
2022-12-26T10:53:52.047Z,19.40
2022-12-26T10:55:28.857Z,22.80
2022-12-26T10:56:00.889Z,21.20
2022-12-26T10:57:04.873Z,22.20
2022-12-26T10:58:19.248Z,16.10
2022-12-26T11:00:46.993Z,8.00
2022-12-26T11:01:50.362Z,19.40
2022-12-26T11:03:14.692Z,21.00
2022-12-26T11:04:53.105Z,20.60
2022-12-26T11:05:57.353Z,22.10
2022-12-26T11:06:40.356Z,22.10
2022-12-26T11:07:52.239Z,17.90
2022-12-26T11:08:54.495Z,19.40
2022-12-26T11:10:00.987Z,20.40
2022-12-26T11:11:12.797Z,21.90
2022-12-26T11:12:24.474Z,14.30
2022-12-26T11:13:27.530Z,22.80
2022-12-26T11:14:34.173Z,19.60
2022-12-26T11:15:44.762Z,21.30
2022-12-26T11:16:48.349Z,17.80
2022-12-26T11:17:52.861Z,21.40
2022-12-26T11:18:55.998Z,19.10
2022-12-26T11:20:23.302Z,13.27
2022-12-26T11:21:28.078Z,18.70
2022-12-26T11:22:30.634Z,19.40
2022-12-26T11:23:34.321Z,18.36
2022-12-26T11:24:37.850Z,18.60
2022-12-26T11:25:50.107Z,17.50
2022-12-26T11:26:52.467Z,19.40
2022-12-26T11:27:57.285Z,13.73
2022-12-26T11:29:17.672Z,18.70
2022-12-26T11:30:32.777Z,17.40
2022-12-26T11:31:36.222Z,18.10
2022-12-26T11:32:39.407Z,18.40
2022-12-26T11:33:43.410Z,15.50
2022-12-26T11:34:47.510Z,19.40
2022-12-26T11:36:10.667Z,16.60
2022-12-26T11:38:50.106Z,15.90
2022-12-26T11:39:54.066Z,14.40
2022-12-26T11:41:15.840Z,17.70
2022-12-26T11:42:22.207Z,17.10
2022-12-26T11:43:24.580Z,16.40
2022-12-26T11:45:48.629Z,16.80
2022-12-26T11:47:07.626Z,16.20
2022-12-26T11:48:26.167Z,16.50
2022-12-26T11:49:50.511Z,17.10
2022-12-26T11:50:53.171Z,16.20
2022-12-26T11:51:59.605Z,16.80
2022-12-26T11:53:04.955Z,16.70
2022-12-26T11:54:25.960Z,18.40
2022-12-26T11:55:34.775Z,17.40
2022-12-26T11:56:38.201Z,16.50
2022-12-26T11:57:41.317Z,18.00
2022-12-26T11:58:45.757Z,16.80
2022-12-26T11:59:48.992Z,15.80
2022-12-26T12:01:01.781Z,17.30
2022-12-26T12:02:26.055Z,20.60
2022-12-26T12:03:36.597Z,16.70
2022-12-26T12:04:39.902Z,10.70
2022-12-26T12:06:03.638Z,16.70
2022-12-26T12:07:33.753Z,17.30
2022-12-26T12:08:39.964Z,14.50
2022-12-26T12:09:49.291Z,17.80
2022-12-26T12:10:56.556Z,17.40
2022-12-26T12:12:03.213Z,16.30
2022-12-26T12:14:31.620Z,18.00
2022-12-26T12:15:52.701Z,17.60
2022-12-26T12:17:05.853Z,18.50
2022-12-26T12:18:24.276Z,18.70
2022-12-26T12:19:31.936Z,16.60
2022-12-26T12:20:52.020Z,19.40
2022-12-26T12:22:11.919Z,19.40
2022-12-26T12:23:21.622Z,16.30
2022-12-26T12:24:46.358Z,16.70
2022-12-26T12:26:09.080Z,17.70
2022-12-26T12:27:34.575Z,16.30
2022-12-26T12:28:41.605Z,15.90
2022-12-26T12:30:11.337Z,17.10
2022-12-26T12:31:36.819Z,17.10
2022-12-26T12:32:47.115Z,18.50
2022-12-26T12:33:57.810Z,11.00
2022-12-26T12:35:20.867Z,14.30
2022-12-26T12:36:43.632Z,18.10
2022-12-26T12:38:15.763Z,18.10
2022-12-26T12:39:30.752Z,18.10
2022-12-26T12:40:46.443Z,16.70
2022-12-26T12:42:07.548Z,21.70
2022-12-26T12:44:56.661Z,19.40
2022-12-26T12:46:21.174Z,19.90
2022-12-26T12:47:44.065Z,19.00
2022-12-26T12:49:19.096Z,18.40
2022-12-26T12:50:43.553Z,18.60
2022-12-26T12:52:02.837Z,15.10
2022-12-26T12:54:55.071Z,19.20
2022-12-26T12:56:01.223Z,18.70
2022-12-26T12:57:22.876Z,17.80
2022-12-26T12:58:32.172Z,19.00
2022-12-26T12:59:53.919Z,16.80
2022-12-26T13:01:02.036Z,8.80
2022-12-26T13:02:12.791Z,16.80
2022-12-26T13:03:18.879Z,13.40
2022-12-26T13:04:31.327Z,15.80
2022-12-26T13:07:09.112Z,17.40
2022-12-26T13:08:15.746Z,16.90
2022-12-26T13:09:21.026Z,15.80
2022-12-26T13:10:32.628Z,17.70
2022-12-26T13:11:37.748Z,16.00
2022-12-26T13:12:40.707Z,15.30
2022-12-26T13:13:55.877Z,15.70
2022-12-26T13:15:20.451Z,14.40
2022-12-26T13:16:25.657Z,8.60
2022-12-26T13:17:35.407Z,15.30
2022-12-26T13:18:40.525Z,15.80
2022-12-26T13:20:04.633Z,16.30
2022-12-26T13:21:12.195Z,15.30
2022-12-26T13:22:18.231Z,15.50
2022-12-26T13:23:49.808Z,14.00
2022-12-26T13:26:13.532Z,15.30
2022-12-26T13:27:19.393Z,15.20
2022-12-26T13:28:28.338Z,14.70
2022-12-26T13:29:42.498Z,14.90
2022-12-26T13:30:45.246Z,16.90
2022-12-26T13:31:48.439Z,13.60
2022-12-26T13:32:55.269Z,15.20
2022-12-26T13:33:58.450Z,13.00
2022-12-26T13:35:02.269Z,16.70
2022-12-26T13:36:06.394Z,16.20
2022-12-26T13:37:09.479Z,16.40
2022-12-26T13:38:12.297Z,17.91
2022-12-26T13:39:25.684Z,13.20
2022-12-26T13:40:30.146Z,15.20
2022-12-26T13:41:51.315Z,13.30
2022-12-26T13:43:19.308Z,12.60
2022-12-26T13:44:24.523Z,15.40
2022-12-26T13:45:45.877Z,15.30
2022-12-26T13:46:52.148Z,14.80
2022-12-26T13:47:54.873Z,13.50
2022-12-26T13:48:58.665Z,14.50
2022-12-26T13:50:38.718Z,17.10
2022-12-26T13:53:00.540Z,15.70
2022-12-26T13:54:06.986Z,12.80
2022-12-26T13:55:15.649Z,17.40
2022-12-26T13:56:22.183Z,18.50
2022-12-26T13:57:41.740Z,16.30
2022-12-26T13:59:02.598Z,16.90
2022-12-26T14:00:08.676Z,13.80
2022-12-26T14:01:27.794Z,17.30
2022-12-26T18:04:31.470Z,20.40
2022-12-26T18:05:35.469Z,22.20
2022-12-26T18:06:39.885Z,22.00
2022-12-26T18:07:47.061Z,14.40
2022-12-26T18:08:49.502Z,15.00
2022-12-26T18:09:52.746Z,16.20
2022-12-26T18:10:55.264Z,18.50
2022-12-26T18:11:57.607Z,13.40
2022-12-26T18:13:00.288Z,19.10
2022-12-26T18:14:04.099Z,19.90
2022-12-26T18:15:07.993Z,18.80
2022-12-26T18:16:18.374Z,17.10
2022-12-26T18:17:22.035Z,18.20
2022-12-26T18:18:28.385Z,17.90
2022-12-26T18:19:31.155Z,18.30
2022-12-26T18:20:35.062Z,16.40
2022-12-26T18:21:38.713Z,18.20
2022-12-26T18:22:42.612Z,17.10
2022-12-26T18:23:46.075Z,20.30
2022-12-26T18:24:49.260Z,18.30
2022-12-26T18:25:54.649Z,15.10
2022-12-26T18:26:57.018Z,16.20
2022-12-26T18:27:59.466Z,16.30
2022-12-26T18:29:03.573Z,16.60
2022-12-26T18:30:10.385Z,16.80
2022-12-26T18:31:14.358Z,15.40
2022-12-26T18:32:24.758Z,18.90
2022-12-26T18:33:27.133Z,16.50
2022-12-26T18:34:30.708Z,14.80
2022-12-26T18:35:33.101Z,14.80
2022-12-26T18:36:37.898Z,16.60
2022-12-26T18:37:42.018Z,14.70
2022-12-26T18:38:44.397Z,15.00
2022-12-26T18:39:48.862Z,15.10
2022-12-26T18:40:56.848Z,15.90
2022-12-26T18:42:00.140Z,16.10
2022-12-26T18:43:04.161Z,14.91
2022-12-26T18:44:07.206Z,18.00
2022-12-26T18:45:10.749Z,15.90
2022-12-26T18:46:17.831Z,17.00
2022-12-26T18:47:20.511Z,18.50
2022-12-26T18:48:23.431Z,19.18
2022-12-26T18:49:27.659Z,11.40
2022-12-26T18:50:30.911Z,17.60
2022-12-26T18:51:33.803Z,16.70
2022-12-26T18:52:38.066Z,15.20
2022-12-26T18:53:41.694Z,8.00
2022-12-26T18:54:45.649Z,15.00
2022-12-26T18:55:48.179Z,12.60
2022-12-26T18:56:51.242Z,16.40
2022-12-26T18:57:53.733Z,15.90
2022-12-26T18:58:58.273Z,16.30
2022-12-26T19:00:01.568Z,13.70
2022-12-26T19:01:06.298Z,15.10
2022-12-26T19:02:16.201Z,16.80
2022-12-26T19:03:19.133Z,15.20
2022-12-26T19:04:22.176Z,15.50
2022-12-26T19:05:31.600Z,17.00
2022-12-26T19:06:35.130Z,16.20
2022-12-26T19:07:37.620Z,15.80
2022-12-26T19:08:40.665Z,16.80
2022-12-26T19:09:44.804Z,14.20
2022-12-26T19:10:48.037Z,14.90
2022-12-26T19:11:52.084Z,16.30
2022-12-26T19:13:04.737Z,16.40
2022-12-26T19:14:09.286Z,15.90
2022-12-26T19:15:12.182Z,16.40
2022-12-26T19:16:16.338Z,15.80
2022-12-26T19:17:19.179Z,17.00
2022-12-26T19:18:22.129Z,15.60
2022-12-26T19:19:27.072Z,14.70
2022-12-26T19:20:31.261Z,16.60
2022-12-26T19:21:33.808Z,14.10
2022-12-26T19:22:36.892Z,15.80
2022-12-26T19:23:40.933Z,12.60
2022-12-26T19:24:45.119Z,14.10
2022-12-26T19:25:49.697Z,16.90
2022-12-26T19:26:52.379Z,15.20
2022-12-26T19:27:54.924Z,15.30
2022-12-26T19:28:57.559Z,15.00
2022-12-26T19:30:01.033Z,14.90
2022-12-26T19:32:22.803Z,18.70
2022-12-26T19:33:25.940Z,10.40
2022-12-26T19:34:28.877Z,15.30
2022-12-26T19:35:31.275Z,14.30
2022-12-26T19:36:34.952Z,14.50
2022-12-26T19:37:40.479Z,14.40
2022-12-26T19:38:44.831Z,12.20
2022-12-26T19:39:47.872Z,15.40
2022-12-26T19:40:51.805Z,16.60
2022-12-26T19:41:54.567Z,11.60
2022-12-26T19:42:58.026Z,13.60
2022-12-26T19:44:00.476Z,15.30
2022-12-26T19:45:05.469Z,14.30
2022-12-26T19:46:11.273Z,14.80
2022-12-26T19:47:16.083Z,16.30
2022-12-26T19:48:19.635Z,14.40
2022-12-26T19:49:23.050Z,13.90
2022-12-26T19:50:27.173Z,11.90
2022-12-26T19:51:31.069Z,18.50
2022-12-26T19:53:52.085Z,16.40
2022-12-26T19:54:54.599Z,16.90
2022-12-26T19:55:58.014Z,16.60
2022-12-26T19:57:00.788Z,15.00
2022-12-26T19:58:03.445Z,17.50
2022-12-26T19:59:06.816Z,15.30
2022-12-26T20:00:10.663Z,17.45
2022-12-26T20:01:20.309Z,17.00
2022-12-26T20:02:24.859Z,17.90
2022-12-26T20:03:28.693Z,17.80
2022-12-26T20:04:31.857Z,17.80
2022-12-26T20:05:40.477Z,20.90
2022-12-26T20:06:43.853Z,19.20
2022-12-26T20:07:47.458Z,16.90
2022-12-26T20:08:50.121Z,14.10
2022-12-26T20:09:52.834Z,17.00
2022-12-26T20:11:04.247Z,20.50
2022-12-26T20:12:07.087Z,19.90
2022-12-26T20:13:09.575Z,18.18
2022-12-26T20:14:14.091Z,20.50
2022-12-26T20:15:18.846Z,20.00
2022-12-26T20:17:03.340Z,18.20
2022-12-26T20:17:27.941Z,18.80
2022-12-26T20:18:32.530Z,17.50
2022-12-26T20:19:35.018Z,16.20
2022-12-26T20:20:40.227Z,19.70
2022-12-26T20:21:43.759Z,19.60
2022-12-26T20:22:51.209Z,21.20
2022-12-26T20:23:51.523Z,21.60
2022-12-26T20:24:55.151Z,19.20
2022-12-26T20:25:59.237Z,21.00
2022-12-26T20:27:02.408Z,20.40
2022-12-26T20:28:04.859Z,18.30
2022-12-26T20:29:09.132Z,17.60
2022-12-26T20:30:13.192Z,15.20
2022-12-26T20:31:18.975Z,17.50
2022-12-26T20:32:21.438Z,19.00
2022-12-26T20:33:24.987Z,16.30
2022-12-26T20:34:28.577Z,16.70
2022-12-26T20:35:30.957Z,17.10
2022-12-26T20:36:35.680Z,16.50
2022-12-26T20:37:39.591Z,11.60
2022-12-26T20:38:42.716Z,15.70
2022-12-26T20:39:46.467Z,14.09
2022-12-26T20:40:50.272Z,11.90
2022-12-26T20:41:54.084Z,15.00
2022-12-26T20:42:57.044Z,17.10
2022-12-26T20:43:59.780Z,16.09
2022-12-26T20:45:02.817Z,15.60
2022-12-26T20:46:20.641Z,16.55
2022-12-26T20:47:23.861Z,17.80
2022-12-26T20:48:26.721Z,14.90
2022-12-26T20:49:32.178Z,15.40
2022-12-26T20:50:35.062Z,17.60
2022-12-26T20:51:40.833Z,17.60
2022-12-26T20:52:44.029Z,13.00
2022-12-26T20:53:47.769Z,15.45
2022-12-26T20:54:51.120Z,17.50
2022-12-26T20:55:56.671Z,14.50
2022-12-26T20:56:59.424Z,19.30
2022-12-26T20:58:02.213Z,16.64
2022-12-26T20:59:05.711Z,15.55
2022-12-26T21:00:09.596Z,15.90
2022-12-26T21:01:20.741Z,17.30
2022-12-26T21:02:26.377Z,15.90
2022-12-26T21:03:30.699Z,17.70
2022-12-26T21:04:33.058Z,17.20
2022-12-26T21:05:36.562Z,13.40
2022-12-26T21:06:40.783Z,16.70
2022-12-26T21:07:43.518Z,16.10
2022-12-26T21:08:47.422Z,14.55
2022-12-26T21:09:50.184Z,14.90
2022-12-26T21:10:52.879Z,16.36
2022-12-26T21:11:56.294Z,15.60
2022-12-26T21:12:59.642Z,20.00
2022-12-26T21:14:05.009Z,15.70
2022-12-26T21:15:08.742Z,17.40
2022-12-26T21:16:15.310Z,16.30
2022-12-26T21:17:18.720Z,16.20
2022-12-26T21:18:23.645Z,13.10
2022-12-26T21:19:28.096Z,18.90
2022-12-26T21:20:31.515Z,15.80
2022-12-26T21:21:37.149Z,13.90
2022-12-26T21:22:40.784Z,16.80
2022-12-26T21:23:44.611Z,13.70
2022-12-26T21:24:46.775Z,16.30
2022-12-26T21:25:49.019Z,14.20
2022-12-26T21:26:53.691Z,14.30
2022-12-26T21:27:59.343Z,14.30
2022-12-26T21:29:04.369Z,17.50
2022-12-26T21:30:07.976Z,16.10
2022-12-26T21:31:11.712Z,13.20
2022-12-26T21:32:14.412Z,16.50
2022-12-26T21:33:18.136Z,15.91
2022-12-26T21:34:22.155Z,14.60
2022-12-26T21:35:24.869Z,13.80
2022-12-26T21:36:27.372Z,12.90
2022-12-26T21:37:50.836Z,17.50
2022-12-26T21:38:54.815Z,15.80
2022-12-26T21:39:57.155Z,14.60
2022-12-26T21:40:59.567Z,14.30
2022-12-26T21:42:03.306Z,16.70
2022-12-26T21:43:05.645Z,18.50
2022-12-26T21:44:09.180Z,15.30
2022-12-26T21:45:13.672Z,15.00
2022-12-26T21:46:19.832Z,15.60
2022-12-26T21:47:22.302Z,14.50
2022-12-26T21:48:26.422Z,16.90
2022-12-26T21:49:28.793Z,15.40
2022-12-26T21:50:31.275Z,17.20
2022-12-26T21:51:35.347Z,14.10
2022-12-26T21:52:38.623Z,14.20
2022-12-26T21:53:42.884Z,15.70
2022-12-26T21:55:03.750Z,13.40
2022-12-26T21:56:07.215Z,17.90
2022-12-26T21:57:10.913Z,14.60
2022-12-26T21:58:13.559Z,17.10
2022-12-26T21:59:34.797Z,16.73
2022-12-26T22:00:37.440Z,16.50
2022-12-26T22:01:39.887Z,14.80
2022-12-26T22:03:02.231Z,12.90
2022-12-26T22:04:20.675Z,17.60
2022-12-26T22:05:25.797Z,14.30
2022-12-26T22:06:29.303Z,17.20
2022-12-26T22:07:31.799Z,17.10
2022-12-26T22:08:34.703Z,15.80
2022-12-26T22:09:37.585Z,16.82
2022-12-26T22:11:03.789Z,16.00
2022-12-26T22:12:26.289Z,15.20
2022-12-26T22:13:30.963Z,17.80
2022-12-26T22:14:34.387Z,10.00
2022-12-26T22:16:02.204Z,15.30
2022-12-26T22:17:04.989Z,16.00
2022-12-26T22:18:07.334Z,13.10